LECOLELN

Guest
Details From LECO - A Coruna
To LELN - Leon
Flight Number -
Tags generated
Created
Modified
Stats Distance 127 nm / 235 km
Max Altitude 8,800 ft / 2,682 m
Waypoints 3
Social Downloads 0
Likes 0
Share VATSIM

Download

Looking for another format? Having issues loading an existing format? Contact us
Advertisement - Login to hide

Notes

Basic altitude profile: - Ascent Rate: 1000ft/min - Ascent Speed: 120kts - Cruise Altitude: 70ft - Cruise Speed: 170kts - Descent Rate: 1000ft/min - Descent Speed: 120kts Options: - Use NATs: yes - Use PACOTS: yes - Use low airways: yes - Use high airways: yes

Route

LECO KORET LELN

ID Type Via Altitude Latitude Longitude Leg Dist Tot Dist Heading (true) Name
O LECO APT - 0 ft / 0 m 43.30226˚ -8.37709˚ - 0 nm - A Coruna
KORET FIX - 8,800 ft / 2,682 m 42.79763˚ -6.55014˚ 85 nm 85 nm 110° / 111° -
O LELN APT - 0 ft / 0 m 42.59194˚ -5.65419˚ 41 nm 127 nm 107° / 108° Leon

Altitude Profile

Advertisement - Login to hide

LECO

Details ICAO LECO (LCG)
Name A Coruna
Region Spain
Timezone Europe/Madrid (UTC+1.0)
Stats Elevation 323 ft / 98 m (AMSL)
Location 43.302264° -8.377086°
Runways 1
Magnetic Variation 2.391° W

METAR

LECO 161130Z VRB02KT 9000 VCFG FEW040 09/07 Q1027 NOSIG

Decode

TAF

TAF LECO 160800Z 1609/1709 VRB05KT 9999 SCT030 BKN040 TX11/1613Z TN02/1706Z TEMPO 1609/1612 02010KT

Decode

Departure Runways

ID Width Length Bearing (true) Bearing (mag) Surface Threshold Offset Overrun Length
04 148 ft / 45 m 6,371 ft / 1,942 m 30.94° 33.33° Asphalt 0 ft / 0 m 194 ft / 59 m
22 148 ft / 45 m 6,371 ft / 1,942 m 210.94° 213.33° Asphalt 0 ft / 0 m 203 ft / 62 m

LELN

Details ICAO LELN (LEN)
Name Leon
Region Spain
Timezone Europe/Madrid (UTC+1.0)
Stats Elevation 3,006 ft / 916 m (AMSL)
Location 42.591935° -5.654188°
Runways 2
Magnetic Variation 1.435° W

METAR

LELN 161100Z 32008KT 260V360 9999 FEW030 05/M02 Q1023

Decode

TAF

Not found

Destination Runways

ID Width Length Bearing (true) Bearing (mag) Surface Threshold Offset Overrun Length
05 148 ft / 45 m 9,836 ft / 2,998 m 45.23° 46.67° Asphalt 0 ft / 0 m 210 ft / 64 m
06 328 ft / 100 m 3,602 ft / 1,098 m 59.75° 61.19° Dirt 0 ft / 0 m 0 ft / 0 m
23 148 ft / 45 m 9,836 ft / 2,998 m 225.25° 226.69° Asphalt 0 ft / 0 m 190 ft / 58 m
24 328 ft / 100 m 3,602 ft / 1,098 m 239.75° 241.19° Dirt 0 ft / 0 m 0 ft / 0 m

Approach Navaids

Runway Type Ident Frequency Range Bearing (true) Bearing (mag) Slope Elevation
23 Localiser ILE 109.50 MHz 18 nm / 33 km 225.22° 226.66° - 3,006 ft / 916 m (AMSL)
23 Glidescope ILE 109.50 MHz 10 nm / 19 km 225.24° 226.67° 3.00° 3,026 ft / 922 m (AMSL)

Popular Alternatives